createdAt,value
2023-03-16T00:01:08.372Z,4.06
2023-03-16T00:03:36.322Z,3.73
2023-03-16T00:06:03.390Z,3.99
2023-03-16T00:08:29.899Z,4.08
2023-03-16T00:10:56.365Z,4.02
2023-03-16T00:13:24.204Z,3.68
2023-03-16T00:15:55.779Z,3.74
2023-03-16T00:18:27.149Z,3.69
2023-03-16T00:20:56.183Z,3.81
2023-03-16T00:23:29.074Z,3.90
2023-03-16T00:26:02.020Z,3.83
2023-03-16T00:28:34.589Z,3.73
2023-03-16T00:31:05.391Z,3.84
2023-03-16T00:33:37.624Z,3.77
2023-03-16T00:36:08.086Z,3.75
2023-03-16T00:38:36.567Z,3.82
2023-03-16T00:41:04.845Z,3.72
2023-03-16T00:43:40.603Z,3.73
2023-03-16T00:46:08.988Z,3.78
2023-03-16T00:48:36.804Z,3.72
2023-03-16T00:51:06.319Z,3.59
2023-03-16T00:53:36.598Z,3.75
2023-03-16T00:56:04.455Z,3.71
2023-03-16T00:58:36.101Z,3.72
2023-03-16T01:01:08.487Z,3.45
2023-03-16T01:03:36.042Z,3.43
2023-03-16T01:06:15.112Z,3.48
2023-03-16T01:08:42.036Z,3.54
2023-03-16T01:11:12.195Z,3.56
2023-03-16T01:13:39.098Z,3.53
2023-03-16T01:16:06.605Z,3.59
2023-03-16T01:18:35.840Z,3.60
2023-03-16T01:21:04.006Z,3.50
2023-03-16T01:23:31.303Z,3.45
2023-03-16T01:25:58.839Z,3.62
2023-03-16T01:28:27.718Z,3.59
2023-03-16T01:30:57.484Z,3.54
2023-03-16T01:33:26.878Z,3.49
2023-03-16T01:36:01.699Z,3.55
2023-03-16T01:38:28.522Z,3.43
2023-03-16T01:40:55.890Z,3.58
2023-03-16T01:43:25.689Z,3.54
2023-03-16T01:46:04.589Z,3.56
2023-03-16T01:48:39.092Z,3.57
2023-03-16T01:51:17.337Z,3.62
2023-03-16T01:53:46.506Z,3.63
2023-03-16T01:56:18.511Z,3.55
2023-03-16T01:58:46.706Z,3.51
2023-03-16T02:01:14.124Z,3.62
2023-03-16T02:03:43.018Z,3.70
2023-03-16T02:06:18.097Z,3.72
2023-03-16T02:08:47.382Z,3.78
2023-03-16T02:11:18.431Z,3.70
2023-03-16T02:13:49.015Z,3.84
2023-03-16T02:16:19.422Z,3.61
2023-03-16T02:18:51.080Z,3.49
2023-03-16T02:21:42.154Z,3.60
2023-03-16T02:24:08.616Z,3.40
2023-03-16T02:26:58.196Z,3.57
2023-03-16T02:30:14.280Z,3.54
2023-03-16T02:32:42.414Z,3.52
2023-03-16T02:35:10.654Z,3.39
2023-03-16T02:37:37.047Z,3.46
2023-03-16T02:40:19.274Z,3.84
2023-03-16T02:42:46.937Z,3.59
2023-03-16T02:45:13.447Z,3.68
2023-03-16T02:47:44.123Z,3.80
2023-03-16T02:50:12.390Z,3.59
2023-03-16T02:52:39.499Z,3.68
2023-03-16T02:55:07.981Z,3.90
2023-03-16T02:57:34.970Z,3.88
2023-03-16T03:00:01.569Z,3.75
2023-03-16T03:02:28.037Z,3.86
2023-03-16T03:04:54.589Z,3.84
2023-03-16T03:07:21.876Z,3.67
2023-03-16T03:09:48.313Z,3.56
2023-03-16T03:12:14.824Z,3.60
2023-03-16T03:14:41.289Z,3.52
2023-03-16T03:17:09.812Z,3.57
2023-03-16T03:19:37.109Z,3.24
2023-03-16T03:22:06.317Z,3.48
2023-03-16T03:24:33.896Z,3.66
2023-03-16T03:27:05.691Z,3.73
2023-03-16T03:29:34.472Z,3.56
2023-03-16T03:32:02.428Z,3.42
2023-03-16T03:34:30.443Z,3.41
2023-03-16T03:36:57.715Z,3.68
2023-03-16T03:39:24.733Z,3.56
2023-03-16T03:41:54.617Z,3.84
2023-03-16T03:44:25.086Z,3.63
2023-03-16T03:46:52.682Z,3.47
2023-03-16T03:49:19.101Z,3.35
2023-03-16T03:51:45.624Z,3.32
2023-03-16T03:54:12.027Z,3.51
2023-03-16T03:56:38.539Z,3.52
2023-03-16T03:59:05.006Z,3.29
2023-03-16T04:01:31.434Z,3.44
2023-03-16T04:03:57.812Z,3.71
2023-03-16T04:06:24.304Z,3.79
2023-03-16T04:08:51.230Z,3.47
2023-03-16T04:11:17.624Z,3.61
2023-03-16T04:13:44.054Z,3.58
2023-03-16T04:16:10.584Z,3.45
2023-03-16T04:18:39.950Z,3.65
2023-03-16T04:21:07.294Z,3.38
2023-03-16T04:23:34.752Z,3.34
2023-03-16T04:26:01.818Z,3.49
2023-03-16T04:28:28.278Z,3.31
2023-03-16T04:30:54.812Z,3.07
2023-03-16T04:33:21.709Z,3.03
2023-03-16T04:35:49.077Z,3.25
2023-03-16T04:38:15.607Z,3.21
2023-03-16T04:40:42.031Z,3.01
2023-03-16T04:43:08.432Z,3.49
2023-03-16T04:45:34.856Z,3.56
2023-03-16T04:48:01.266Z,3.64
2023-03-16T04:50:28.001Z,3.44
2023-03-16T04:52:54.559Z,3.31
2023-03-16T04:55:22.851Z,3.21
2023-03-16T04:57:49.717Z,3.49
2023-03-16T05:00:19.527Z,3.55
2023-03-16T05:02:50.289Z,3.47
2023-03-16T05:05:16.882Z,3.24
2023-03-16T05:07:44.433Z,3.03
2023-03-16T05:10:13.387Z,3.19
2023-03-16T05:12:40.546Z,3.52
2023-03-16T05:15:08.396Z,3.57
2023-03-16T05:17:34.938Z,3.44
2023-03-16T05:20:02.038Z,3.49
2023-03-16T05:22:28.451Z,3.03
2023-03-16T05:24:54.878Z,3.52
2023-03-16T05:27:21.610Z,3.73
2023-03-16T05:29:48.098Z,3.68
2023-03-16T05:32:14.610Z,3.79
2023-03-16T05:34:43.255Z,3.66
2023-03-16T05:37:10.388Z,3.70
2023-03-16T05:39:36.933Z,3.60
2023-03-16T05:42:03.833Z,3.24
2023-03-16T05:44:30.663Z,3.44
2023-03-16T05:46:57.166Z,3.36
2023-03-16T05:49:23.652Z,3.44
2023-03-16T05:51:50.300Z,3.09
2023-03-16T05:54:17.104Z,3.32
2023-03-16T05:59:18.790Z,3.21
2023-03-16T06:01:45.293Z,3.22
2023-03-16T06:04:11.762Z,2.99
2023-03-16T06:06:38.405Z,3.36
2023-03-16T06:09:04.832Z,3.45
2023-03-16T06:11:32.907Z,3.60
2023-03-16T06:14:00.957Z,3.65
2023-03-16T06:16:27.903Z,3.58
2023-03-16T06:18:58.511Z,3.39
2023-03-16T06:21:26.119Z,3.81
2023-03-16T06:23:52.643Z,3.80
2023-03-16T06:26:19.200Z,3.63
2023-03-16T06:28:45.728Z,4.02
2023-03-16T06:31:12.283Z,3.92
2023-03-16T06:33:38.791Z,4.30
2023-03-16T06:36:05.450Z,4.32
2023-03-16T06:38:32.094Z,4.08
2023-03-16T06:40:58.521Z,4.17
2023-03-16T06:43:24.949Z,4.61
2023-03-16T06:45:51.459Z,5.01
2023-03-16T06:48:17.927Z,5.20
2023-03-16T06:50:47.063Z,5.88
2023-03-16T06:53:13.500Z,5.66
2023-03-16T06:55:40.456Z,5.64
2023-03-16T06:58:07.306Z,5.50
2023-03-16T07:00:34.119Z,6.01
2023-03-16T07:03:01.893Z,5.45
2023-03-16T07:05:28.366Z,5.71
2023-03-16T07:07:54.904Z,6.04
2023-03-16T07:10:21.712Z,5.53
2023-03-16T07:12:48.165Z,5.88
2023-03-16T07:15:14.681Z,6.19
2023-03-16T07:17:42.496Z,5.73
2023-03-16T07:20:10.826Z,5.99
2023-03-16T07:22:38.039Z,5.98
2023-03-16T07:25:05.270Z,6.30
2023-03-16T07:27:31.756Z,6.18
2023-03-16T07:29:59.859Z,6.82
2023-03-16T07:32:26.559Z,6.23
2023-03-16T07:34:53.523Z,6.29
2023-03-16T07:37:25.252Z,6.11
2023-03-16T07:39:52.076Z,6.59
2023-03-16T07:42:19.748Z,6.39
2023-03-16T07:44:46.275Z,6.73
2023-03-16T07:47:13.410Z,6.62
2023-03-16T07:49:41.604Z,6.90
2023-03-16T07:52:08.299Z,6.74
2023-03-16T07:54:34.786Z,7.35
2023-03-16T07:57:01.248Z,6.89
2023-03-16T07:59:27.655Z,7.81
2023-03-16T08:01:54.048Z,8.16
2023-03-16T08:04:20.469Z,7.84
2023-03-16T08:06:47.839Z,8.48
2023-03-16T08:09:20.057Z,8.59
2023-03-16T08:11:46.464Z,8.63
2023-03-16T08:14:13.212Z,9.32
2023-03-16T08:16:39.752Z,10.12
2023-03-16T08:19:06.186Z,10.20
2023-03-16T08:21:33.082Z,10.47
2023-03-16T08:23:59.587Z,10.80
2023-03-16T08:26:27.219Z,10.86
2023-03-16T08:28:53.740Z,10.70
2023-03-16T08:31:21.628Z,11.31
2023-03-16T08:33:48.570Z,11.71
2023-03-16T08:36:17.025Z,11.85
2023-03-16T08:38:53.525Z,11.23
2023-03-16T08:41:30.617Z,11.57
2023-03-16T08:43:57.766Z,12.40
2023-03-16T08:46:24.313Z,12.67
2023-03-16T08:48:51.104Z,10.97
2023-03-16T08:51:17.749Z,11.74
2023-03-16T08:53:44.273Z,12.66
2023-03-16T08:56:14.180Z,12.11
2023-03-16T08:58:46.044Z,11.55
2023-03-16T09:01:15.217Z,11.02
2023-03-16T09:03:42.392Z,10.61
2023-03-16T09:06:11.020Z,10.67
2023-03-16T09:08:39.138Z,9.79
2023-03-16T09:11:12.777Z,10.20
2023-03-16T09:13:40.212Z,10.08
2023-03-16T09:16:11.964Z,10.51
2023-03-16T09:18:38.476Z,9.90
2023-03-16T09:21:08.029Z,9.93
2023-03-16T09:23:34.873Z,9.30
2023-03-16T09:26:05.395Z,9.57
2023-03-16T09:28:31.941Z,9.53
2023-03-16T09:30:58.877Z,9.78
2023-03-16T09:33:26.816Z,9.81
2023-03-16T09:35:53.565Z,9.80
2023-03-16T09:38:20.032Z,9.69
2023-03-16T09:40:48.969Z,10.07
2023-03-16T09:43:23.086Z,9.58
2023-03-16T09:45:52.366Z,9.71
2023-03-16T09:48:20.940Z,9.61
2023-03-16T09:50:49.642Z,9.92
2023-03-16T09:53:30.835Z,10.54
2023-03-16T09:56:53.505Z,10.32
2023-03-16T09:59:57.301Z,9.94
2023-03-16T10:03:24.778Z,10.42
2023-03-16T10:06:03.928Z,10.83
2023-03-16T10:11:35.609Z,10.41
2023-03-16T10:14:23.723Z,10.93
2023-03-16T10:16:56.686Z,11.29
2023-03-16T10:19:29.785Z,11.60
2023-03-16T10:21:58.350Z,11.68
2023-03-16T10:24:29.601Z,12.07
2023-03-16T10:27:01.176Z,11.73
2023-03-16T10:29:36.775Z,11.45
2023-03-16T10:32:14.664Z,11.44
2023-03-16T10:34:47.071Z,10.83
2023-03-16T10:37:14.531Z,11.49
2023-03-16T10:39:42.976Z,11.10
2023-03-16T10:42:21.345Z,11.08
2023-03-16T10:44:48.152Z,11.21
2023-03-16T10:47:28.617Z,11.73
2023-03-16T10:49:55.575Z,11.18
2023-03-16T10:52:34.512Z,11.18
2023-03-16T10:55:10.197Z,11.66
2023-03-16T10:57:41.524Z,10.80
2023-03-16T11:00:10.056Z,10.38
2023-03-16T11:02:36.489Z,10.69
2023-03-16T11:05:18.151Z,10.84
2023-03-16T11:08:12.154Z,10.90
2023-03-16T11:10:55.247Z,10.97
2023-03-16T11:13:22.668Z,11.44
2023-03-16T11:16:01.706Z,11.14
2023-03-16T11:18:43.584Z,11.34
2023-03-16T11:21:21.404Z,10.82
2023-03-16T11:23:51.252Z,11.38
2023-03-16T11:26:40.170Z,11.26
2023-03-16T11:29:21.870Z,10.61
2023-03-16T11:31:55.238Z,10.88
2023-03-16T11:34:28.992Z,11.48
2023-03-16T11:37:01.039Z,11.57
2023-03-16T11:40:03.920Z,11.43
2023-03-16T11:42:53.284Z,11.80
2023-03-16T11:45:45.599Z,11.48
2023-03-16T11:48:37.068Z,11.50
2023-03-16T11:51:30.529Z,11.91
2023-03-16T11:54:39.078Z,11.52
2023-03-16T11:57:23.979Z,11.63
2023-03-16T12:00:13.170Z,11.33
2023-03-16T12:02:43.625Z,11.50
2023-03-16T12:05:16.791Z,11.21
2023-03-16T12:08:01.744Z,11.02
2023-03-16T12:10:38.911Z,11.21
2023-03-16T12:13:18.521Z,11.18
2023-03-16T12:15:49.986Z,11.55
2023-03-16T12:18:25.061Z,11.66
2023-03-16T12:21:00.777Z,12.07
2023-03-16T12:23:39.380Z,11.91
2023-03-16T12:26:06.294Z,12.17
2023-03-16T12:28:33.410Z,11.90
2023-03-16T12:31:05.826Z,12.36
2023-03-16T12:33:58.169Z,12.12
2023-03-16T12:36:42.975Z,11.77
2023-03-16T12:39:30.344Z,11.18
2023-03-16T12:42:34.596Z,12.14
2023-03-16T12:45:12.999Z,11.35
2023-03-16T12:47:58.724Z,11.74
2023-03-16T12:50:25.366Z,11.70
2023-03-16T12:52:53.573Z,12.02
2023-03-16T12:55:44.912Z,11.55
2023-03-16T12:58:12.629Z,11.73
2023-03-16T13:00:42.687Z,11.26
2023-03-16T13:03:19.979Z,11.65
2023-03-16T13:05:58.838Z,11.06
2023-03-16T13:08:27.666Z,11.50
2023-03-16T13:11:12.118Z,11.55
2023-03-16T13:14:00.541Z,11.54
2023-03-16T13:16:33.095Z,11.60
2023-03-16T13:18:59.846Z,11.55
2023-03-16T13:21:39.738Z,11.88
2023-03-16T13:24:18.252Z,12.28
2023-03-16T13:26:52.138Z,12.50
2023-03-16T13:29:22.175Z,12.42
2023-03-16T13:31:51.711Z,11.91
2023-03-16T13:34:30.384Z,12.13
2023-03-16T13:36:59.041Z,11.91
2023-03-16T13:39:28.923Z,11.83
2023-03-16T13:42:16.835Z,11.80
2023-03-16T13:44:44.614Z,11.33
2023-03-16T13:47:18.077Z,11.64
2023-03-16T13:49:51.292Z,11.68
2023-03-16T13:52:26.038Z,11.71
2023-03-16T13:54:53.555Z,11.78
2023-03-16T13:57:24.128Z,11.69
2023-03-16T13:59:51.109Z,12.05
2023-03-16T14:02:22.405Z,11.54
2023-03-16T14:04:48.884Z,12.08
2023-03-16T14:07:18.532Z,12.35
2023-03-16T14:10:23.020Z,12.69
2023-03-16T14:12:56.979Z,12.17
2023-03-16T14:15:26.562Z,11.72
2023-03-16T14:17:54.438Z,11.79
2023-03-16T14:20:33.004Z,12.49
2023-03-16T14:23:00.052Z,12.05
2023-03-16T14:25:29.436Z,12.00
2023-03-16T14:28:01.845Z,11.75
2023-03-16T14:30:30.301Z,11.88
2023-03-16T14:33:02.498Z,11.83
2023-03-16T14:35:29.135Z,12.17
2023-03-16T14:37:57.104Z,12.56
2023-03-16T14:40:30.743Z,11.99
2023-03-16T14:43:00.458Z,11.88
2023-03-16T14:45:32.172Z,11.94
2023-03-16T14:48:35.715Z,12.06
2023-03-16T14:51:04.234Z,12.17
2023-03-16T14:53:30.791Z,12.50
2023-03-16T14:56:04.450Z,11.38
2023-03-16T14:58:30.979Z,11.95
2023-03-16T15:00:57.911Z,12.11
2023-03-16T15:03:33.178Z,12.26
2023-03-16T15:06:00.276Z,11.87
2023-03-16T15:08:32.030Z,11.84
2023-03-16T15:11:05.702Z,11.80
2023-03-16T15:13:47.042Z,11.86
2023-03-16T15:16:14.454Z,11.79
2023-03-16T15:18:47.364Z,11.60
2023-03-16T15:24:12.077Z,11.99
2023-03-16T15:26:56.784Z,12.11
2023-03-16T15:32:15.529Z,11.87
2023-03-16T15:34:56.840Z,11.89
2023-03-16T15:37:27.363Z,12.22
2023-03-16T15:39:56.834Z,11.70
2023-03-16T15:42:25.801Z,11.97
2023-03-16T15:44:52.218Z,11.97
2023-03-16T15:47:18.715Z,11.80
2023-03-16T15:49:48.440Z,11.78
2023-03-16T15:52:31.924Z,11.94
2023-03-16T15:55:03.157Z,11.94
2023-03-16T15:57:31.208Z,12.24
2023-03-16T15:59:59.169Z,11.82
2023-03-16T16:02:29.778Z,11.82
2023-03-16T16:04:57.015Z,11.80
2023-03-16T16:07:57.982Z,12.07
2023-03-16T16:10:26.816Z,11.88
2023-03-16T16:12:55.787Z,11.81
2023-03-16T16:15:25.940Z,11.53
2023-03-16T16:18:19.336Z,11.93
2023-03-16T16:20:41.077Z,11.10
2023-03-16T16:26:45.521Z,11.96
2023-03-16T16:29:22.095Z,11.26
2023-03-16T16:31:49.068Z,10.98
2023-03-16T16:34:18.016Z,10.80
2023-03-16T16:36:57.622Z,11.61
2023-03-16T16:39:24.603Z,11.32
2023-03-16T16:41:57.902Z,11.36
2023-03-16T16:44:27.524Z,11.36
2023-03-16T16:46:57.546Z,11.19
2023-03-16T16:49:30.505Z,11.07
2023-03-16T16:51:58.411Z,11.14
2023-03-16T16:54:59.012Z,11.49
2023-03-16T16:57:57.054Z,11.22
2023-03-16T17:00:25.729Z,11.34
2023-03-16T17:02:54.178Z,10.93
2023-03-16T17:05:25.691Z,10.83
2023-03-16T17:07:53.201Z,10.77
2023-03-16T17:10:25.376Z,10.92
2023-03-16T17:12:57.997Z,10.91
2023-03-16T17:15:28.184Z,11.05
2023-03-16T17:18:03.510Z,11.01
2023-03-16T17:20:57.918Z,11.04
2023-03-16T17:23:47.714Z,10.88
2023-03-16T17:26:27.898Z,10.85
2023-03-16T17:29:02.392Z,11.10
2023-03-16T17:32:02.798Z,10.68
2023-03-16T17:38:49.774Z,10.48
2023-03-16T17:41:28.050Z,10.56
2023-03-16T17:43:57.397Z,10.34
2023-03-16T17:46:56.399Z,10.46
2023-03-16T17:50:56.682Z,10.25
2023-03-16T17:53:23.097Z,10.30
2023-03-16T17:55:49.551Z,10.41
2023-03-16T17:58:57.553Z,10.04
2023-03-16T18:04:25.745Z,10.39
2023-03-16T18:06:58.189Z,10.41
2023-03-16T18:09:59.081Z,9.87
2023-03-16T18:12:25.682Z,9.92
2023-03-16T18:14:58.288Z,10.13
2023-03-16T18:17:30.888Z,9.76
2023-03-16T18:19:57.910Z,9.86
2023-03-16T18:22:25.124Z,9.91
2023-03-16T18:24:53.850Z,9.92
2023-03-16T18:27:20.848Z,9.77
2023-03-16T18:29:48.119Z,9.92
2023-03-16T18:32:23.152Z,10.05
2023-03-16T18:34:51.612Z,9.91
2023-03-16T18:37:23.903Z,9.63
2023-03-16T18:39:52.180Z,9.62
2023-03-16T18:42:20.436Z,9.52
2023-03-16T18:44:47.155Z,9.38
2023-03-16T18:47:18.502Z,9.89
2023-03-16T18:49:48.883Z,9.56
2023-03-16T18:52:22.032Z,9.42
2023-03-16T18:54:49.116Z,9.84
2023-03-16T18:57:21.314Z,9.43
2023-03-16T18:59:48.319Z,9.40
2023-03-16T19:02:27.501Z,9.50
2023-03-16T19:04:56.798Z,9.62
2023-03-16T19:07:37.699Z,9.67
2023-03-16T19:10:17.909Z,8.93
2023-03-16T19:12:44.392Z,9.51
2023-03-16T19:15:39.211Z,9.40
2023-03-16T19:18:06.163Z,9.34
2023-03-16T19:20:34.751Z,9.33
2023-03-16T19:23:25.662Z,9.27
2023-03-16T19:25:54.211Z,9.06
2023-03-16T19:28:36.482Z,8.98
2023-03-16T19:31:21.373Z,9.26
2023-03-16T19:33:48.631Z,9.13
2023-03-16T19:36:25.811Z,8.70
2023-03-16T19:38:52.375Z,8.88
2023-03-16T19:41:23.578Z,8.95
2023-03-16T19:43:51.976Z,8.64
2023-03-16T19:46:18.622Z,8.49
2023-03-16T19:48:45.636Z,8.73
2023-03-16T19:51:17.278Z,8.71
2023-03-16T19:53:44.221Z,8.29
2023-03-16T19:56:14.572Z,8.28
2023-03-16T19:58:43.205Z,8.65
2023-03-16T20:01:19.083Z,8.50
2023-03-16T20:03:47.671Z,8.63
2023-03-16T20:06:20.559Z,8.38
2023-03-16T20:08:48.177Z,8.50
2023-03-16T20:11:22.533Z,8.45
2023-03-16T20:13:50.143Z,8.55
2023-03-16T20:16:23.682Z,8.68
2023-03-16T20:18:54.473Z,8.63
2023-03-16T20:21:21.156Z,8.74
2023-03-16T20:23:48.381Z,8.44
2023-03-16T20:26:22.085Z,8.46
2023-03-16T20:28:49.572Z,8.32
2023-03-16T20:31:22.033Z,8.21
2023-03-16T20:33:50.269Z,8.01
2023-03-16T20:36:17.052Z,8.31
2023-03-16T20:38:43.749Z,8.42
2023-03-16T20:41:18.908Z,8.59
2023-03-16T20:43:45.796Z,8.46
2023-03-16T20:46:17.291Z,8.21
2023-03-16T20:48:43.826Z,8.23
2023-03-16T20:51:15.414Z,8.34
2023-03-16T20:53:46.522Z,8.24
2023-03-16T20:56:16.250Z,8.25
2023-03-16T20:58:44.913Z,8.24
2023-03-16T21:01:21.181Z,8.33
2023-03-16T21:03:56.842Z,8.04
2023-03-16T21:06:29.862Z,8.23
2023-03-16T21:08:58.908Z,8.46
2023-03-16T21:11:37.939Z,8.26
2023-03-16T21:14:07.030Z,8.49
2023-03-16T21:16:33.981Z,8.67
2023-03-16T21:19:00.654Z,8.58
2023-03-16T21:21:27.156Z,8.30
2023-03-16T21:23:53.664Z,8.45
2023-03-16T21:26:22.836Z,8.50
2023-03-16T21:28:58.117Z,8.23
2023-03-16T21:31:26.178Z,8.28
2023-03-16T21:33:54.453Z,7.89
2023-03-16T21:36:23.651Z,8.08
2023-03-16T21:38:50.935Z,8.33
2023-03-16T21:41:17.698Z,8.33
2023-03-16T21:43:45.002Z,8.11
2023-03-16T21:46:22.851Z,8.60
2023-03-16T21:48:54.940Z,8.28
2023-03-16T21:51:25.247Z,8.04
2023-03-16T21:53:51.703Z,7.84
2023-03-16T21:56:22.686Z,8.24
2023-03-16T21:58:50.377Z,8.16
2023-03-16T22:01:32.236Z,8.81
2023-03-16T22:04:04.814Z,8.00
2023-03-16T22:06:31.486Z,8.06
2023-03-16T22:08:59.786Z,8.40
2023-03-16T22:11:29.141Z,8.28
2023-03-16T22:13:57.832Z,8.01
2023-03-16T22:16:26.891Z,8.07
2023-03-16T22:18:58.853Z,7.89
2023-03-16T22:21:37.536Z,8.17
2023-03-16T22:24:07.155Z,8.16
2023-03-16T22:26:33.828Z,8.15
2023-03-16T22:29:00.947Z,8.12
2023-03-16T22:31:34.163Z,7.87
2023-03-16T22:34:03.381Z,8.12
2023-03-16T22:36:31.493Z,8.31
2023-03-16T22:39:05.364Z,7.98
2023-03-16T22:41:31.941Z,7.84
2023-03-16T22:43:59.488Z,8.29
2023-03-16T22:46:27.556Z,7.89
2023-03-16T22:48:55.367Z,8.62
2023-03-16T22:51:31.692Z,7.95
2023-03-16T22:54:08.141Z,8.25
2023-03-16T22:56:36.063Z,8.30
2023-03-16T22:59:07.003Z,8.06
2023-03-16T23:01:37.570Z,7.76
2023-03-16T23:04:30.246Z,8.33
2023-03-16T23:06:57.291Z,7.98
2023-03-16T23:09:24.440Z,8.22
2023-03-16T23:11:55.898Z,7.83
2023-03-16T23:14:25.055Z,7.95
2023-03-16T23:16:52.608Z,7.87
2023-03-16T23:19:32.214Z,7.71
2023-03-16T23:22:04.918Z,7.96
2023-03-16T23:24:33.337Z,7.84
2023-03-16T23:27:00.617Z,7.73
2023-03-16T23:29:27.953Z,8.11
2023-03-16T23:31:54.701Z,7.76
2023-03-16T23:34:23.942Z,8.12
2023-03-16T23:36:51.672Z,7.93
2023-03-16T23:39:18.501Z,8.13
2023-03-16T23:41:47.731Z,8.31
2023-03-16T23:44:32.367Z,8.43
2023-03-16T23:47:00.513Z,8.35
2023-03-16T23:49:32.831Z,8.37
2023-03-16T23:52:01.362Z,7.72
2023-03-16T23:54:30.438Z,8.17
2023-03-16T23:56:57.264Z,8.09
2023-03-16T23:59:24.510Z,8.03
